Irfan Turuc

Recruteur - Fenerbahce
3 Déc 2028
Dimanche
Processus

Personnalité

Adaptabilité (11) Ambition (4) Controverse (5) Loyauté (3) Pression (8) Professionnalisme (12) Sportivité (1) Tempérament (13)

Profil

Style d'entraînement Démocratique
Diplôme Continental C
Détermination 10
Gestion des joueurs 8
Motivation 14
Discipline 7
Satisfaction professionnelle
100%
Fatigue
0%
Rôle Recruteur
Salaire 102.8K p/s
Contrat 14.03.2030

Performance

Comportement Bon
Efficacité de l'entraînement
55%
Développement des joueurs
70%
Prévention des blessures
50%
Mise en place tactique
50%

Événements récents

A participé à une réunion de recrutement maintenant
A participé à une réunion de recrutement maintenant
A participé à une réunion de recrutement 7j
A participé à une réunion de recrutement 7j
A participé à une réunion de recrutement 7j
A recommandé une cible de transfert 7j
A participé à une réunion de recrutement 14j
A recommandé une cible de transfert 14j

Suivi en cours

67
Joueur Club Statut Capacité Confiance Observé Dernière observation Dernier vote
Archie Gray Southampton Actif 152 / 151 40% 1 17.07.2028 -
Jesús Areso Athletic Bilbao Actif 153 / 143 40% 1 17.07.2028 -
Youri Tielemans Manchester United Actif 178 / 168 40% 1 12.06.2028 -
Bertuğ Yıldırım Basaksehir Actif 128 / 122 62% 1 31.01.2028 Approuver
Obed Nkambadio Paris FC Actif 136 / 130 40% 1 07.01.2028 -
Martin Ødegaard Arsenal Actif 175 / 179 40% 1 31.12.2027 -
Khéphren Thuram Juventus Actif 153 / 166 40% 2 01.06.2027 -
Zion Suzuki Aston Villa Actif 136 / 145 40% 6 27.05.2027 -
Marvin Keller Chelsea Actif 139 / 157 40% 5 27.05.2027 Observer
Adam Wharton Crystal Palace Actif 154 / 148 40% 3 26.05.2027 -
Ousmane Diomande Nottingham Forest Actif 156 / 167 40% 4 26.05.2027 -
Aaron Hickey Brentford Actif 159 / 142 40% 5 25.05.2027 -
Habib Diarra Sunderland Actif 125 / 140 40% 5 25.05.2027 -
Alex Scott Bournemouth Actif 160 / 143 40% 4 25.05.2027 -
Matthijs de Ligt Manchester United Actif 164 / 169 40% 2 25.05.2027 -
James Trafford Leeds United Actif 149 / 158 40% 4 24.05.2027 -
Juanlu Bournemouth Actif 136 / 152 40% 7 23.05.2027 -
Jarrad Branthwaite Everton Actif 148 / 153 40% 6 20.05.2027 -
Evan N'Dicka AS Roma Actif 157 / 160 40% 2 20.05.2027 -
Lewis Hall Newcastle United Actif 150 / 153 40% 4 18.05.2027 -
Jacob Greaves Ipswich Town Actif 129 / 140 40% 1 13.05.2027 -
Curtis Jones Inter Actif 142 / 147 40% 2 11.05.2027 -
Nathan Collins Brentford Actif 138 / 134 40% 1 08.05.2027 -
Kobbie Mainoo Manchester United Actif 161 / 148 40% 4 07.05.2027 -
Max Johnston Derby County Actif 136 / 125 40% 1 06.05.2027 -
André Wolverhampton Actif 129 / 152 40% 1 05.05.2027 -
Pedro Porro Tottenham Actif 138 / 145 40% 1 03.05.2027 -
Jacques Ekomié Wrexham Actif 126 / 143 40% 2 02.05.2027 -
Lewis Ferguson Bologna Actif 136 / 135 40% 1 02.05.2027 -
Keane Lewis-Potter Brentford Actif 135 / 136 40% 2 01.05.2027 -
Wesley Fofana Chelsea Actif 150 / 169 40% 2 28.04.2027 -
Ryan Sessegnon Fulham Actif 156 / 138 40% 1 28.04.2027 -
Quinten Timber Crystal Palace Actif 161 / 144 40% 2 27.04.2027 -
Yehor Yarmoliuk Brentford Actif 163 / 155 40% 5 25.04.2027 -
Adis Jašić Zamalek Actif 134 / 120 40% 1 25.04.2027 -
Festy Ebosele Basaksehir Perdu 136 / 130 40% 3 24.04.2027 -
Maxence Lacroix Chelsea Actif 164 / 155 40% 2 20.04.2027 -
Ronnie Edwards Queens Park Rangers Actif 119 / 132 40% 1 17.04.2027 -
Raoul Bellanova Atalanta Actif 164 / 163 40% 1 16.04.2027 -
James Garner Everton Actif 143 / 142 40% 3 14.04.2027 -
Nuno Tavares Lazio Actif 132 / 130 40% 2 14.04.2027 -
Shea Charles Southampton Actif 149 / 143 40% 1 05.04.2027 -
Óscar Mingueza Crystal Palace Actif 157 / 158 40% 1 04.04.2027 -
Florentino Luís Ipswich Town Actif 128 / 144 40% 1 02.04.2027 -
Jake O'Brien Everton Actif 133 / 143 40% 1 01.04.2027 -
Bosun Lawal Stoke City Actif 110 / 124 40% 1 21.03.2027 -
Elliot Anderson Manchester City Actif 169 / 151 40% 4 20.03.2027 -
Diego Gómez Brighton Actif 138 / 144 40% 1 12.03.2027 -
Toby Collyer West Bromwich Albion Actif 119 / 121 40% 1 03.03.2027 -
Dennis Cirkin Queens Park Rangers Actif 115 / 120 40% 1 24.02.2027 -
Ian Maatsen Aston Villa Actif 145 / 138 40% 2 21.02.2027 -
Cheick Oumar Souaré Viktoria Plzen Actif 133 / 118 40% 1 01.02.2027 -
Stanislav Agkatsev Brentford Actif 121 / 146 40% 7 11.12.2026 Observer
Radek Vítek Middlesbrough Actif 116 / 130 40% 3 04.12.2026 -
Cam Bragg West Ham United Actif 102 / 115 40% 1 28.11.2026 -
David Ozoh Derby County Actif 121 / 141 40% 2 19.11.2026 -
Louis Leroux FC Nantes Actif 131 / 127 40% 2 04.11.2026 -
Sergi Domínguez Dinamo Zagreb Actif 132 / 134 40% 2 30.10.2026 -
Philippe Ndinga Philadelphia Union Actif 119 / 121 40% 2 26.10.2026 -
Agustín Medina Lanús Actif 109 / 122 40% 1 22.10.2026 -
Morrison Agyemang Charlotte Football Club Actif 130 / 136 40% 1 17.10.2026 -
Mbekezeli Mbokazi Chicago Fire Actif 131 / 131 40% 1 16.10.2026 -
Matteo Pérez Vinlöf Dinamo Zagreb Actif 125 / 128 40% 1 30.09.2026 -
Musab Al-Juwayr Al-Qadisiyah Actif 132 / 136 40% 1 17.08.2026 -
Christopher Opéri Basaksehir Actif 127 / 128 55% 1 03.08.2026 -
Giovani Lo Celso Betis Actif 137 / 135 40% 1 01.08.2026 -
Christian Pulisic AC Milan Actif 175 / 164 40% 1 01.08.2026 -